sensor_id;sensor_type;location;lat;lon;timestamp;P1;durP1;ratioP1;P2;durP2;ratioP2
12703;SDS011;6416;52.182;7.650;2023-01-08T00:02:17;2.47;;;2.10;;
12703;SDS011;6416;52.182;7.650;2023-01-08T00:04:43;2.10;;;1.90;;
12703;SDS011;6416;52.182;7.650;2023-01-08T00:07:08;2.00;;;1.80;;
12703;SDS011;6416;52.182;7.650;2023-01-08T00:09:34;2.07;;;1.87;;
12703;SDS011;6416;52.182;7.650;2023-01-08T00:11:59;2.10;;;1.80;;
12703;SDS011;6416;52.182;7.650;2023-01-08T00:14:25;2.23;;;2.00;;
12703;SDS011;6416;52.182;7.650;2023-01-08T00:16:51;1.80;;;1.70;;
12703;SDS011;6416;52.182;7.650;2023-01-08T00:19:16;3.23;;;2.03;;
12703;SDS011;6416;52.182;7.650;2023-01-08T00:21:42;1.77;;;1.67;;
12703;SDS011;6416;52.182;7.650;2023-01-08T00:24:07;2.00;;;1.80;;
12703;SDS011;6416;52.182;7.650;2023-01-08T00:26:33;1.97;;;1.87;;
12703;SDS011;6416;52.182;7.650;2023-01-08T00:28:58;2.03;;;1.70;;
12703;SDS011;6416;52.182;7.650;2023-01-08T00:31:23;2.10;;;1.90;;
12703;SDS011;6416;52.182;7.650;2023-01-08T00:33:49;2.10;;;1.90;;
12703;SDS011;6416;52.182;7.650;2023-01-08T00:36:15;1.73;;;1.63;;
12703;SDS011;6416;52.182;7.650;2023-01-08T00:38:42;1.90;;;1.80;;
12703;SDS011;6416;52.182;7.650;2023-01-08T00:41:09;2.80;;;1.83;;
12703;SDS011;6416;52.182;7.650;2023-01-08T00:43:35;1.73;;;1.63;;
12703;SDS011;6416;52.182;7.650;2023-01-08T00:46:01;2.07;;;1.87;;
12703;SDS011;6416;52.182;7.650;2023-01-08T00:48:28;1.90;;;1.57;;
12703;SDS011;6416;52.182;7.650;2023-01-08T00:50:54;1.93;;;1.83;;
12703;SDS011;6416;52.182;7.650;2023-01-08T00:53:20;2.70;;;1.80;;
12703;SDS011;6416;52.182;7.650;2023-01-08T00:55:46;1.67;;;1.57;;
12703;SDS011;6416;52.182;7.650;2023-01-08T00:58:12;1.63;;;1.53;;
12703;SDS011;6416;52.182;7.650;2023-01-08T01:00:38;2.30;;;2.10;;
12703;SDS011;6416;52.182;7.650;2023-01-08T01:03:03;1.70;;;1.60;;
12703;SDS011;6416;52.182;7.650;2023-01-08T01:05:29;2.10;;;1.90;;
12703;SDS011;6416;52.182;7.650;2023-01-08T01:07:55;2.00;;;1.77;;
12703;SDS011;6416;52.182;7.650;2023-01-08T01:10:21;2.20;;;1.60;;
12703;SDS011;6416;52.182;7.650;2023-01-08T01:12:47;2.17;;;1.73;;
12703;SDS011;6416;52.182;7.650;2023-01-08T01:15:14;2.17;;;1.77;;
12703;SDS011;6416;52.182;7.650;2023-01-08T01:17:41;1.90;;;1.70;;
12703;SDS011;6416;52.182;7.650;2023-01-08T01:20:08;1.70;;;1.60;;
12703;SDS011;6416;52.182;7.650;2023-01-08T01:22:37;1.87;;;1.77;;
12703;SDS011;6416;52.182;7.650;2023-01-08T01:25:02;1.73;;;1.57;;
12703;SDS011;6416;52.182;7.650;2023-01-08T01:27:28;1.60;;;1.50;;
12703;SDS011;6416;52.182;7.650;2023-01-08T01:29:54;1.70;;;1.50;;
12703;SDS011;6416;52.182;7.650;2023-01-08T01:32:19;1.83;;;1.60;;
12703;SDS011;6416;52.182;7.650;2023-01-08T01:34:45;1.60;;;1.50;;
12703;SDS011;6416;52.182;7.650;2023-01-08T01:37:11;1.73;;;1.63;;
12703;SDS011;6416;52.182;7.650;2023-01-08T01:39:36;2.07;;;1.80;;
12703;SDS011;6416;52.182;7.650;2023-01-08T01:42:02;1.60;;;1.50;;
12703;SDS011;6416;52.182;7.650;2023-01-08T01:44:35;1.83;;;1.60;;
12703;SDS011;6416;52.182;7.650;2023-01-08T01:47:22;1.87;;;1.60;;
12703;SDS011;6416;52.182;7.650;2023-01-08T01:52:38;1.43;;;1.33;;
12703;SDS011;6416;52.182;7.650;2023-01-08T01:55:17;1.60;;;1.47;;
12703;SDS011;6416;52.182;7.650;2023-01-08T01:57:43;1.53;;;1.43;;
12703;SDS011;6416;52.182;7.650;2023-01-08T02:00:16;3.10;;;1.50;;
12703;SDS011;6416;52.182;7.650;2023-01-08T02:02:41;1.77;;;1.40;;
12703;SDS011;6416;52.182;7.650;2023-01-08T02:05:07;2.77;;;1.53;;
12703;SDS011;6416;52.182;7.650;2023-01-08T02:08:08;1.77;;;1.50;;
12703;SDS011;6416;52.182;7.650;2023-01-08T02:10:42;1.43;;;1.33;;
12703;SDS011;6416;52.182;7.650;2023-01-08T02:13:28;1.67;;;1.50;;
12703;SDS011;6416;52.182;7.650;2023-01-08T02:16:02;4.53;;;1.40;;
12703;SDS011;6416;52.182;7.650;2023-01-08T02:18:37;1.60;;;1.50;;
12703;SDS011;6416;52.182;7.650;2023-01-08T02:24:10;1.47;;;1.37;;
12703;SDS011;6416;52.182;7.650;2023-01-08T02:26:41;1.67;;;1.57;;
12703;SDS011;6416;52.182;7.650;2023-01-08T02:29:12;1.50;;;1.40;;
12703;SDS011;6416;52.182;7.650;2023-01-08T02:31:41;1.63;;;1.50;;
12703;SDS011;6416;52.182;7.650;2023-01-08T02:34:07;1.90;;;1.50;;
12703;SDS011;6416;52.182;7.650;2023-01-08T02:36:46;3.50;;;1.50;;
12703;SDS011;6416;52.182;7.650;2023-01-08T02:39:27;1.57;;;1.30;;
12703;SDS011;6416;52.182;7.650;2023-01-08T02:42:11;1.57;;;1.47;;
12703;SDS011;6416;52.182;7.650;2023-01-08T02:44:53;1.60;;;1.50;;
12703;SDS011;6416;52.182;7.650;2023-01-08T02:47:23;1.60;;;1.30;;
12703;SDS011;6416;52.182;7.650;2023-01-08T02:50:03;1.53;;;1.43;;
12703;SDS011;6416;52.182;7.650;2023-01-08T02:52:35;1.50;;;1.40;;
12703;SDS011;6416;52.182;7.650;2023-01-08T02:55:06;1.70;;;1.60;;
12703;SDS011;6416;52.182;7.650;2023-01-08T02:57:33;3.50;;;1.30;;
12703;SDS011;6416;52.182;7.650;2023-01-08T02:59:59;1.63;;;1.50;;
12703;SDS011;6416;52.182;7.650;2023-01-08T03:02:24;1.70;;;1.60;;
12703;SDS011;6416;52.182;7.650;2023-01-08T03:04:56;1.50;;;1.40;;
12703;SDS011;6416;52.182;7.650;2023-01-08T03:07:27;2.90;;;1.60;;
12703;SDS011;6416;52.182;7.650;2023-01-08T03:09:52;1.60;;;1.50;;
12703;SDS011;6416;52.182;7.650;2023-01-08T03:12:29;1.60;;;1.50;;
12703;SDS011;6416;52.182;7.650;2023-01-08T03:15:08;1.80;;;1.60;;
12703;SDS011;6416;52.182;7.650;2023-01-08T03:17:45;2.00;;;1.67;;
12703;SDS011;6416;52.182;7.650;2023-01-08T03:20:14;2.03;;;1.50;;
12703;SDS011;6416;52.182;7.650;2023-01-08T03:22:45;1.80;;;1.47;;
12703;SDS011;6416;52.182;7.650;2023-01-08T03:25:13;2.87;;;1.50;;
12703;SDS011;6416;52.182;7.650;2023-01-08T03:27:42;1.93;;;1.77;;
12703;SDS011;6416;52.182;7.650;2023-01-08T03:30:11;1.60;;;1.50;;
12703;SDS011;6416;52.182;7.650;2023-01-08T03:32:39;1.87;;;1.60;;
12703;SDS011;6416;52.182;7.650;2023-01-08T03:35:07;1.37;;;1.27;;
12703;SDS011;6416;52.182;7.650;2023-01-08T03:37:36;1.50;;;1.30;;
12703;SDS011;6416;52.182;7.650;2023-01-08T03:42:34;1.17;;;1.07;;
12703;SDS011;6416;52.182;7.650;2023-01-08T03:44:59;1.57;;;1.47;;
12703;SDS011;6416;52.182;7.650;2023-01-08T03:47:26;1.73;;;1.50;;
12703;SDS011;6416;52.182;7.650;2023-01-08T03:49:56;1.57;;;1.30;;
12703;SDS011;6416;52.182;7.650;2023-01-08T03:52:30;2.03;;;1.73;;
12703;SDS011;6416;52.182;7.650;2023-01-08T03:54:56;2.43;;;1.70;;
12703;SDS011;6416;52.182;7.650;2023-01-08T03:57:21;1.97;;;1.50;;
12703;SDS011;6416;52.182;7.650;2023-01-08T03:59:47;1.40;;;1.30;;
12703;SDS011;6416;52.182;7.650;2023-01-08T04:02:12;1.40;;;1.30;;
12703;SDS011;6416;52.182;7.650;2023-01-08T04:04:38;2.27;;;1.30;;
12703;SDS011;6416;52.182;7.650;2023-01-08T04:07:04;1.57;;;1.47;;
12703;SDS011;6416;52.182;7.650;2023-01-08T04:09:31;1.50;;;1.30;;
12703;SDS011;6416;52.182;7.650;2023-01-08T04:11:56;1.93;;;1.40;;
12703;SDS011;6416;52.182;7.650;2023-01-08T04:14:22;1.70;;;1.60;;
12703;SDS011;6416;52.182;7.650;2023-01-08T04:16:47;1.40;;;1.30;;
12703;SDS011;6416;52.182;7.650;2023-01-08T04:19:13;1.47;;;1.30;;
12703;SDS011;6416;52.182;7.650;2023-01-08T04:21:38;1.60;;;1.50;;
12703;SDS011;6416;52.182;7.650;2023-01-08T04:24:07;1.40;;;1.23;;
12703;SDS011;6416;52.182;7.650;2023-01-08T04:26:32;1.60;;;1.43;;
12703;SDS011;6416;52.182;7.650;2023-01-08T04:28:58;1.33;;;1.23;;
12703;SDS011;6416;52.182;7.650;2023-01-08T04:31:26;1.50;;;1.40;;
12703;SDS011;6416;52.182;7.650;2023-01-08T04:33:51;1.60;;;1.50;;
12703;SDS011;6416;52.182;7.650;2023-01-08T04:36:16;1.97;;;1.40;;
12703;SDS011;6416;52.182;7.650;2023-01-08T04:38:42;1.57;;;1.40;;
12703;SDS011;6416;52.182;7.650;2023-01-08T04:41:08;1.30;;;1.20;;
12703;SDS011;6416;52.182;7.650;2023-01-08T04:43:33;1.47;;;1.37;;
12703;SDS011;6416;52.182;7.650;2023-01-08T04:45:59;2.33;;;1.50;;
12703;SDS011;6416;52.182;7.650;2023-01-08T04:48:26;1.53;;;1.40;;
12703;SDS011;6416;52.182;7.650;2023-01-08T04:50:52;1.50;;;1.40;;
12703;SDS011;6416;52.182;7.650;2023-01-08T04:53:18;2.30;;;1.30;;
12703;SDS011;6416;52.182;7.650;2023-01-08T04:55:43;2.03;;;1.40;;
12703;SDS011;6416;52.182;7.650;2023-01-08T04:58:09;1.60;;;1.40;;
12703;SDS011;6416;52.182;7.650;2023-01-08T05:00:35;1.90;;;1.50;;
12703;SDS011;6416;52.182;7.650;2023-01-08T05:03:02;1.63;;;1.30;;
12703;SDS011;6416;52.182;7.650;2023-01-08T05:05:27;2.40;;;1.70;;
12703;SDS011;6416;52.182;7.650;2023-01-08T05:07:53;1.37;;;1.27;;
12703;SDS011;6416;52.182;7.650;2023-01-08T05:10:18;1.70;;;1.40;;
12703;SDS011;6416;52.182;7.650;2023-01-08T05:12:44;1.57;;;1.30;;
12703;SDS011;6416;52.182;7.650;2023-01-08T05:15:09;2.07;;;1.30;;
12703;SDS011;6416;52.182;7.650;2023-01-08T05:17:35;1.40;;;1.30;;
12703;SDS011;6416;52.182;7.650;2023-01-08T05:20:00;1.67;;;1.50;;
12703;SDS011;6416;52.182;7.650;2023-01-08T05:22:26;2.77;;;1.83;;
12703;SDS011;6416;52.182;7.650;2023-01-08T05:24:51;1.70;;;1.57;;
12703;SDS011;6416;52.182;7.650;2023-01-08T05:27:17;1.50;;;1.37;;
12703;SDS011;6416;52.182;7.650;2023-01-08T05:29:42;2.07;;;1.40;;
12703;SDS011;6416;52.182;7.650;2023-01-08T05:32:17;1.50;;;1.40;;
12703;SDS011;6416;52.182;7.650;2023-01-08T05:34:43;1.50;;;1.40;;
12703;SDS011;6416;52.182;7.650;2023-01-08T05:37:09;1.80;;;1.53;;
12703;SDS011;6416;52.182;7.650;2023-01-08T05:39:35;2.10;;;1.50;;
12703;SDS011;6416;52.182;7.650;2023-01-08T05:42:01;2.33;;;1.73;;
12703;SDS011;6416;52.182;7.650;2023-01-08T05:44:27;1.43;;;1.33;;
12703;SDS011;6416;52.182;7.650;2023-01-08T05:46:53;1.57;;;1.37;;
12703;SDS011;6416;52.182;7.650;2023-01-08T05:49:19;2.37;;;1.53;;
12703;SDS011;6416;52.182;7.650;2023-01-08T05:51:44;1.60;;;1.40;;
12703;SDS011;6416;52.182;7.650;2023-01-08T05:54:09;1.43;;;1.33;;
12703;SDS011;6416;52.182;7.650;2023-01-08T05:56:35;1.63;;;1.53;;
12703;SDS011;6416;52.182;7.650;2023-01-08T05:59:00;1.67;;;1.50;;
12703;SDS011;6416;52.182;7.650;2023-01-08T06:01:26;1.83;;;1.70;;
12703;SDS011;6416;52.182;7.650;2023-01-08T06:03:53;1.40;;;1.30;;
12703;SDS011;6416;52.182;7.650;2023-01-08T06:06:19;1.80;;;1.40;;
12703;SDS011;6416;52.182;7.650;2023-01-08T06:08:45;2.23;;;1.50;;
12703;SDS011;6416;52.182;7.650;2023-01-08T06:11:10;1.83;;;1.43;;
12703;SDS011;6416;52.182;7.650;2023-01-08T06:13:39;2.67;;;1.40;;
12703;SDS011;6416;52.182;7.650;2023-01-08T06:16:06;3.80;;;1.60;;
12703;SDS011;6416;52.182;7.650;2023-01-08T06:18:32;1.33;;;1.23;;
12703;SDS011;6416;52.182;7.650;2023-01-08T06:20:57;1.37;;;1.23;;
12703;SDS011;6416;52.182;7.650;2023-01-08T06:23:23;1.43;;;1.30;;
12703;SDS011;6416;52.182;7.650;2023-01-08T06:25:52;1.47;;;1.23;;
12703;SDS011;6416;52.182;7.650;2023-01-08T06:28:19;1.30;;;1.20;;
12703;SDS011;6416;52.182;7.650;2023-01-08T06:30:45;1.37;;;1.23;;
12703;SDS011;6416;52.182;7.650;2023-01-08T06:33:10;1.53;;;1.43;;
12703;SDS011;6416;52.182;7.650;2023-01-08T06:35:36;1.70;;;1.57;;
12703;SDS011;6416;52.182;7.650;2023-01-08T06:38:01;1.77;;;1.60;;
12703;SDS011;6416;52.182;7.650;2023-01-08T06:40:27;1.50;;;1.40;;
12703;SDS011;6416;52.182;7.650;2023-01-08T06:42:52;1.50;;;1.40;;
12703;SDS011;6416;52.182;7.650;2023-01-08T06:45:18;1.77;;;1.60;;
12703;SDS011;6416;52.182;7.650;2023-01-08T06:47:43;2.97;;;1.47;;
12703;SDS011;6416;52.182;7.650;2023-01-08T06:50:09;2.07;;;1.70;;
12703;SDS011;6416;52.182;7.650;2023-01-08T06:52:35;2.03;;;1.80;;
12703;SDS011;6416;52.182;7.650;2023-01-08T06:55:04;2.10;;;1.80;;
12703;SDS011;6416;52.182;7.650;2023-01-08T06:57:29;1.50;;;1.40;;
12703;SDS011;6416;52.182;7.650;2023-01-08T06:59:55;1.30;;;1.20;;
12703;SDS011;6416;52.182;7.650;2023-01-08T07:02:21;1.30;;;1.20;;
12703;SDS011;6416;52.182;7.650;2023-01-08T07:04:46;1.63;;;1.50;;
12703;SDS011;6416;52.182;7.650;2023-01-08T07:07:12;1.63;;;1.30;;
12703;SDS011;6416;52.182;7.650;2023-01-08T07:09:42;2.17;;;1.60;;
12703;SDS011;6416;52.182;7.650;2023-01-08T07:12:13;1.73;;;1.50;;
12703;SDS011;6416;52.182;7.650;2023-01-08T07:14:39;1.83;;;1.40;;
12703;SDS011;6416;52.182;7.650;2023-01-08T07:17:05;2.17;;;1.50;;
12703;SDS011;6416;52.182;7.650;2023-01-08T07:19:31;2.17;;;1.50;;
12703;SDS011;6416;52.182;7.650;2023-01-08T07:21:56;1.77;;;1.53;;
12703;SDS011;6416;52.182;7.650;2023-01-08T07:24:22;3.20;;;1.40;;
12703;SDS011;6416;52.182;7.650;2023-01-08T07:26:47;2.40;;;1.60;;
12703;SDS011;6416;52.182;7.650;2023-01-08T07:29:13;2.03;;;1.40;;
12703;SDS011;6416;52.182;7.650;2023-01-08T07:31:38;1.67;;;1.10;;
12703;SDS011;6416;52.182;7.650;2023-01-08T07:34:03;1.80;;;1.07;;
12703;SDS011;6416;52.182;7.650;2023-01-08T07:36:29;1.50;;;1.00;;
12703;SDS011;6416;52.182;7.650;2023-01-08T07:38:54;0.90;;;0.90;;
12703;SDS011;6416;52.182;7.650;2023-01-08T07:41:20;1.27;;;1.00;;
12703;SDS011;6416;52.182;7.650;2023-01-08T07:43:46;1.60;;;1.20;;
12703;SDS011;6416;52.182;7.650;2023-01-08T07:46:12;1.33;;;1.13;;
12703;SDS011;6416;52.182;7.650;2023-01-08T07:48:37;1.43;;;1.10;;
12703;SDS011;6416;52.182;7.650;2023-01-08T07:51:03;1.20;;;1.10;;
12703;SDS011;6416;52.182;7.650;2023-01-08T07:53:31;2.20;;;1.30;;
12703;SDS011;6416;52.182;7.650;2023-01-08T07:55:57;1.53;;;1.07;;
12703;SDS011;6416;52.182;7.650;2023-01-08T07:58:26;1.23;;;0.93;;
12703;SDS011;6416;52.182;7.650;2023-01-08T08:00:52;1.10;;;1.00;;
12703;SDS011;6416;52.182;7.650;2023-01-08T08:03:18;1.43;;;1.07;;
12703;SDS011;6416;52.182;7.650;2023-01-08T08:05:43;1.70;;;1.03;;
12703;SDS011;6416;52.182;7.650;2023-01-08T08:08:09;2.27;;;1.03;;
12703;SDS011;6416;52.182;7.650;2023-01-08T08:10:36;1.80;;;0.93;;
12703;SDS011;6416;52.182;7.650;2023-01-08T08:13:05;2.30;;;1.27;;
12703;SDS011;6416;52.182;7.650;2023-01-08T08:15:31;1.63;;;0.90;;
12703;SDS011;6416;52.182;7.650;2023-01-08T08:17:57;1.20;;;0.90;;
12703;SDS011;6416;52.182;7.650;2023-01-08T08:20:23;1.17;;;1.03;;
12703;SDS011;6416;52.182;7.650;2023-01-08T08:22:49;1.23;;;1.13;;
12703;SDS011;6416;52.182;7.650;2023-01-08T08:25:14;1.37;;;1.20;;
12703;SDS011;6416;52.182;7.650;2023-01-08T08:27:43;3.00;;;1.40;;
12703;SDS011;6416;52.182;7.650;2023-01-08T08:30:09;0.90;;;0.90;;
12703;SDS011;6416;52.182;7.650;2023-01-08T08:32:36;1.50;;;1.20;;
12703;SDS011;6416;52.182;7.650;2023-01-08T08:35:01;1.50;;;1.00;;
12703;SDS011;6416;52.182;7.650;2023-01-08T08:37:27;1.60;;;1.00;;
12703;SDS011;6416;52.182;7.650;2023-01-08T08:39:53;1.13;;;1.03;;
12703;SDS011;6416;52.182;7.650;2023-01-08T08:42:18;1.33;;;1.00;;
12703;SDS011;6416;52.182;7.650;2023-01-08T08:44:44;1.57;;;0.93;;
12703;SDS011;6416;52.182;7.650;2023-01-08T08:47:09;0.93;;;0.93;;
12703;SDS011;6416;52.182;7.650;2023-01-08T08:49:35;3.07;;;1.40;;
12703;SDS011;6416;52.182;7.650;2023-01-08T08:52:00;1.80;;;1.30;;
12703;SDS011;6416;52.182;7.650;2023-01-08T08:54:27;2.47;;;1.13;;
12703;SDS011;6416;52.182;7.650;2023-01-08T08:56:52;1.10;;;1.00;;
12703;SDS011;6416;52.182;7.650;2023-01-08T08:59:18;1.20;;;1.00;;
12703;SDS011;6416;52.182;7.650;2023-01-08T09:01:43;2.13;;;1.30;;
12703;SDS011;6416;52.182;7.650;2023-01-08T09:04:09;1.23;;;1.00;;
12703;SDS011;6416;52.182;7.650;2023-01-08T09:06:34;1.20;;;0.93;;
12703;SDS011;6416;52.182;7.650;2023-01-08T09:09:00;1.40;;;1.20;;
12703;SDS011;6416;52.182;7.650;2023-01-08T09:11:25;1.73;;;1.10;;
12703;SDS011;6416;52.182;7.650;2023-01-08T09:13:51;0.90;;;0.90;;
12703;SDS011;6416;52.182;7.650;2023-01-08T09:16:16;1.70;;;0.90;;
12703;SDS011;6416;52.182;7.650;2023-01-08T09:18:42;1.00;;;0.90;;
12703;SDS011;6416;52.182;7.650;2023-01-08T09:21:07;0.70;;;0.70;;
12703;SDS011;6416;52.182;7.650;2023-01-08T09:23:33;1.20;;;0.80;;
12703;SDS011;6416;52.182;7.650;2023-01-08T09:25:59;2.17;;;0.90;;
12703;SDS011;6416;52.182;7.650;2023-01-08T09:28:25;0.67;;;0.67;;
12703;SDS011;6416;52.182;7.650;2023-01-08T09:30:51;1.03;;;0.70;;
12703;SDS011;6416;52.182;7.650;2023-01-08T09:33:16;3.97;;;1.13;;
12703;SDS011;6416;52.182;7.650;2023-01-08T09:35:42;1.33;;;0.73;;
12703;SDS011;6416;52.182;7.650;2023-01-08T09:38:08;2.20;;;1.08;;
12703;SDS011;6416;52.182;7.650;2023-01-08T09:40:35;1.57;;;0.90;;
12703;SDS011;6416;52.182;7.650;2023-01-08T09:43:06;1.00;;;0.90;;
12703;SDS011;6416;52.182;7.650;2023-01-08T09:45:38;2.67;;;0.80;;
12703;SDS011;6416;52.182;7.650;2023-01-08T09:48:06;1.20;;;0.80;;
12703;SDS011;6416;52.182;7.650;2023-01-08T09:50:37;2.65;;;1.20;;
12703;SDS011;6416;52.182;7.650;2023-01-08T09:53:02;1.23;;;0.93;;
12703;SDS011;6416;52.182;7.650;2023-01-08T09:55:28;3.03;;;0.90;;
12703;SDS011;6416;52.182;7.650;2023-01-08T09:57:58;1.38;;;1.00;;
12703;SDS011;6416;52.182;7.650;2023-01-08T10:00:27;1.95;;;1.00;;
12703;SDS011;6416;52.182;7.650;2023-01-08T10:02:55;2.78;;;1.08;;
12703;SDS011;6416;52.182;7.650;2023-01-08T10:05:21;2.22;;;1.20;;
12703;SDS011;6416;52.182;7.650;2023-01-08T10:07:46;2.15;;;1.10;;
12703;SDS011;6416;52.182;7.650;2023-01-08T10:10:22;1.85;;;1.05;;
12703;SDS011;6416;52.182;7.650;2023-01-08T10:12:52;3.22;;;1.20;;
12703;SDS011;6416;52.182;7.650;2023-01-08T10:15:19;3.05;;;1.17;;
12703;SDS011;6416;52.182;7.650;2023-01-08T10:20:28;2.58;;;1.30;;
12703;SDS011;6416;52.182;7.650;2023-01-08T10:22:55;3.35;;;1.27;;
12703;SDS011;6416;52.182;7.650;2023-01-08T10:25:31;1.88;;;1.15;;
12703;SDS011;6416;52.182;7.650;2023-01-08T10:27:58;2.67;;;1.38;;
12703;SDS011;6416;52.182;7.650;2023-01-08T10:33:04;3.05;;;1.08;;
12703;SDS011;6416;52.182;7.650;2023-01-08T10:35:35;2.17;;;1.05;;
12703;SDS011;6416;52.182;7.650;2023-01-08T10:38:02;2.20;;;1.20;;
12703;SDS011;6416;52.182;7.650;2023-01-08T10:43:45;2.58;;;1.25;;
12703;SDS011;6416;52.182;7.650;2023-01-08T10:45:54;2.67;;;1.20;;
12703;SDS011;6416;52.182;7.650;2023-01-08T10:48:38;4.07;;;1.52;;
12703;SDS011;6416;52.182;7.650;2023-01-08T10:51:17;6.82;;;1.55;;
12703;SDS011;6416;52.182;7.650;2023-01-08T10:53:43;4.45;;;1.70;;
12703;SDS011;6416;52.182;7.650;2023-01-08T10:56:19;4.20;;;1.55;;
12703;SDS011;6416;52.182;7.650;2023-01-08T10:58:49;3.42;;;1.55;;
12703;SDS011;6416;52.182;7.650;2023-01-08T11:03:55;5.78;;;1.35;;
12703;SDS011;6416;52.182;7.650;2023-01-08T11:06:29;4.28;;;1.60;;
12703;SDS011;6416;52.182;7.650;2023-01-08T11:08:58;5.35;;;1.83;;
12703;SDS011;6416;52.182;7.650;2023-01-08T11:11:45;2.95;;;1.38;;
12703;SDS011;6416;52.182;7.650;2023-01-08T11:16:46;5.25;;;1.77;;
12703;SDS011;6416;52.182;7.650;2023-01-08T11:19:16;4.20;;;1.48;;
12703;SDS011;6416;52.182;7.650;2023-01-08T11:21:54;3.35;;;1.73;;
12703;SDS011;6416;52.182;7.650;2023-01-08T11:24:28;2.22;;;1.15;;
12703;SDS011;6416;52.182;7.650;2023-01-08T11:26:59;4.88;;;1.65;;
12703;SDS011;6416;52.182;7.650;2023-01-08T11:37:25;4.28;;;1.30;;
12703;SDS011;6416;52.182;7.650;2023-01-08T11:39:52;4.07;;;1.42;;
12703;SDS011;6416;52.182;7.650;2023-01-08T11:42:25;2.47;;;1.30;;
12703;SDS011;6416;52.182;7.650;2023-01-08T11:50:26;3.53;;;1.48;;
12703;SDS011;6416;52.182;7.650;2023-01-08T11:53:45;3.35;;;1.33;;
12703;SDS011;6416;52.182;7.650;2023-01-08T12:10:14;3.80;;;1.25;;
12703;SDS011;6416;52.182;7.650;2023-01-08T12:15:38;3.80;;;1.42;;
12703;SDS011;6416;52.182;7.650;2023-01-08T12:21:32;4.43;;;1.50;;
12703;SDS011;6416;52.182;7.650;2023-01-08T12:24:42;5.07;;;2.60;;
12703;SDS011;6416;52.182;7.650;2023-01-08T12:32:41;5.22;;;1.90;;
12703;SDS011;6416;52.182;7.650;2023-01-08T12:40:21;3.50;;;1.40;;
12703;SDS011;6416;52.182;7.650;2023-01-08T12:42:55;2.83;;;1.30;;
12703;SDS011;6416;52.182;7.650;2023-01-08T12:45:31;4.05;;;1.42;;
12703;SDS011;6416;52.182;7.650;2023-01-08T12:48:09;5.03;;;1.40;;
12703;SDS011;6416;52.182;7.650;2023-01-08T13:01:44;2.60;;;1.10;;
12703;SDS011;6416;52.182;7.650;2023-01-08T13:04:16;2.53;;;1.23;;
12703;SDS011;6416;52.182;7.650;2023-01-08T13:09:25;3.00;;;1.27;;
12703;SDS011;6416;52.182;7.650;2023-01-08T13:11:52;3.77;;;1.40;;
12703;SDS011;6416;52.182;7.650;2023-01-08T13:14:19;2.63;;;1.27;;
12703;SDS011;6416;52.182;7.650;2023-01-08T13:16:46;3.87;;;1.47;;
12703;SDS011;6416;52.182;7.650;2023-01-08T13:19:24;2.30;;;1.20;;
12703;SDS011;6416;52.182;7.650;2023-01-08T13:21:52;3.20;;;1.00;;
12703;SDS011;6416;52.182;7.650;2023-01-08T13:24:24;3.03;;;1.20;;
12703;SDS011;6416;52.182;7.650;2023-01-08T13:27:10;1.43;;;1.03;;
12703;SDS011;6416;52.182;7.650;2023-01-08T13:29:45;2.27;;;1.00;;
12703;SDS011;6416;52.182;7.650;2023-01-08T13:37:40;2.57;;;1.30;;
12703;SDS011;6416;52.182;7.650;2023-01-08T13:40:34;2.33;;;1.30;;
12703;SDS011;6416;52.182;7.650;2023-01-08T13:42:59;1.97;;;1.07;;
12703;SDS011;6416;52.182;7.650;2023-01-08T13:45:25;1.87;;;0.97;;
12703;SDS011;6416;52.182;7.650;2023-01-08T13:47:51;1.80;;;1.20;;
12703;SDS011;6416;52.182;7.650;2023-01-08T13:50:18;2.40;;;1.20;;
12703;SDS011;6416;52.182;7.650;2023-01-08T13:52:47;3.77;;;1.20;;
12703;SDS011;6416;52.182;7.650;2023-01-08T13:55:30;1.80;;;1.30;;
12703;SDS011;6416;52.182;7.650;2023-01-08T13:58:16;1.87;;;1.37;;
12703;SDS011;6416;52.182;7.650;2023-01-08T14:03:26;1.27;;;0.80;;
12703;SDS011;6416;52.182;7.650;2023-01-08T14:08:47;1.07;;;0.87;;
12703;SDS011;6416;52.182;7.650;2023-01-08T14:11:24;1.70;;;0.77;;
12703;SDS011;6416;52.182;7.650;2023-01-08T14:13:54;1.10;;;0.73;;
12703;SDS011;6416;52.182;7.650;2023-01-08T14:16:20;1.43;;;1.00;;
12703;SDS011;6416;52.182;7.650;2023-01-08T14:18:46;0.93;;;0.83;;
12703;SDS011;6416;52.182;7.650;2023-01-08T14:21:12;1.10;;;0.80;;
12703;SDS011;6416;52.182;7.650;2023-01-08T14:23:39;0.60;;;0.60;;
12703;SDS011;6416;52.182;7.650;2023-01-08T14:26:06;1.50;;;0.80;;
12703;SDS011;6416;52.182;7.650;2023-01-08T14:28:39;0.80;;;0.70;;
12703;SDS011;6416;52.182;7.650;2023-01-08T14:31:22;2.67;;;0.70;;
12703;SDS011;6416;52.182;7.650;2023-01-08T14:33:49;0.60;;;0.50;;
12703;SDS011;6416;52.182;7.650;2023-01-08T14:36:17;0.73;;;0.70;;
12703;SDS011;6416;52.182;7.650;2023-01-08T14:38:43;1.97;;;0.80;;
12703;SDS011;6416;52.182;7.650;2023-01-08T14:41:12;0.83;;;0.83;;
12703;SDS011;6416;52.182;7.650;2023-01-08T14:43:42;2.07;;;0.80;;
12703;SDS011;6416;52.182;7.650;2023-01-08T14:46:13;0.80;;;0.60;;
12703;SDS011;6416;52.182;7.650;2023-01-08T14:48:45;1.10;;;0.80;;
12703;SDS011;6416;52.182;7.650;2023-01-08T14:51:12;0.63;;;0.63;;
12703;SDS011;6416;52.182;7.650;2023-01-08T14:53:44;2.07;;;0.80;;
12703;SDS011;6416;52.182;7.650;2023-01-08T14:56:16;2.40;;;1.00;;
12703;SDS011;6416;52.182;7.650;2023-01-08T14:58:46;1.53;;;0.80;;
12703;SDS011;6416;52.182;7.650;2023-01-08T15:01:13;1.13;;;0.90;;
12703;SDS011;6416;52.182;7.650;2023-01-08T15:03:46;1.13;;;0.80;;
12703;SDS011;6416;52.182;7.650;2023-01-08T15:06:26;1.57;;;0.70;;
12703;SDS011;6416;52.182;7.650;2023-01-08T15:08:53;2.43;;;1.10;;
12703;SDS011;6416;52.182;7.650;2023-01-08T15:13:52;1.13;;;0.83;;
12703;SDS011;6416;52.182;7.650;2023-01-08T15:16:24;0.80;;;0.80;;
12703;SDS011;6416;52.182;7.650;2023-01-08T15:18:55;1.57;;;1.00;;
12703;SDS011;6416;52.182;7.650;2023-01-08T15:21:30;0.97;;;0.80;;
12703;SDS011;6416;52.182;7.650;2023-01-08T15:23:56;2.50;;;0.80;;
12703;SDS011;6416;52.182;7.650;2023-01-08T15:26:23;1.43;;;1.03;;
12703;SDS011;6416;52.182;7.650;2023-01-08T15:28:56;0.87;;;0.83;;
12703;SDS011;6416;52.182;7.650;2023-01-08T15:33:51;1.00;;;0.97;;
12703;SDS011;6416;52.182;7.650;2023-01-08T15:36:17;1.70;;;1.00;;
12703;SDS011;6416;52.182;7.650;2023-01-08T15:38:42;1.53;;;1.10;;
12703;SDS011;6416;52.182;7.650;2023-01-08T15:41:08;1.10;;;0.90;;
12703;SDS011;6416;52.182;7.650;2023-01-08T15:43:34;1.53;;;1.20;;
12703;SDS011;6416;52.182;7.650;2023-01-08T15:46:00;1.93;;;1.30;;
12703;SDS011;6416;52.182;7.650;2023-01-08T15:48:25;1.30;;;1.20;;
12703;SDS011;6416;52.182;7.650;2023-01-08T15:50:51;1.10;;;1.00;;
12703;SDS011;6416;52.182;7.650;2023-01-08T15:53:20;1.10;;;1.00;;
12703;SDS011;6416;52.182;7.650;2023-01-08T15:55:45;1.47;;;1.00;;
12703;SDS011;6416;52.182;7.650;2023-01-08T15:58:12;1.23;;;1.13;;
12703;SDS011;6416;52.182;7.650;2023-01-08T16:00:39;1.10;;;1.00;;
12703;SDS011;6416;52.182;7.650;2023-01-08T16:03:05;1.30;;;1.00;;
12703;SDS011;6416;52.182;7.650;2023-01-08T16:05:32;1.00;;;0.90;;
12703;SDS011;6416;52.182;7.650;2023-01-08T16:07:57;1.43;;;1.13;;
12703;SDS011;6416;52.182;7.650;2023-01-08T16:10:23;1.60;;;1.20;;
12703;SDS011;6416;52.182;7.650;2023-01-08T16:12:48;2.50;;;1.63;;
12703;SDS011;6416;52.182;7.650;2023-01-08T16:15:14;2.37;;;1.97;;
12703;SDS011;6416;52.182;7.650;2023-01-08T16:17:40;5.20;;;3.50;;
12703;SDS011;6416;52.182;7.650;2023-01-08T16:20:07;5.60;;;3.97;;
12703;SDS011;6416;52.182;7.650;2023-01-08T16:22:33;8.87;;;6.40;;
12703;SDS011;6416;52.182;7.650;2023-01-08T16:24:59;3.47;;;3.17;;
12703;SDS011;6416;52.182;7.650;2023-01-08T16:27:24;4.13;;;2.67;;
12703;SDS011;6416;52.182;7.650;2023-01-08T16:29:50;6.47;;;4.40;;
12703;SDS011;6416;52.182;7.650;2023-01-08T16:32:16;5.13;;;3.37;;
12703;SDS011;6416;52.182;7.650;2023-01-08T16:34:42;6.17;;;5.07;;
12703;SDS011;6416;52.182;7.650;2023-01-08T16:37:07;4.97;;;4.57;;
12703;SDS011;6416;52.182;7.650;2023-01-08T16:39:33;2.50;;;2.30;;
12703;SDS011;6416;52.182;7.650;2023-01-08T16:41:58;2.60;;;2.03;;
12703;SDS011;6416;52.182;7.650;2023-01-08T16:44:24;2.30;;;1.80;;